Orbital elements of FENGYUN 1C DEB
| Launched | 9 May 1999 |
| Flight ended | – |
| Launch site | Taiyuan Space Center, PRC |
| Owner | People's Republic of China |
| NORAD ID | 31819 |
| Date fetched |
Epoch osculation |
Inc. [°] |
Ecc. | RA asc node [hr] |
Arg Peri. [°] |
Mean anom [°] |
Mean motion [rev/day] |
Abs. mag |
| Date fetched |
Epoch osculation |
Inc. [°] |
Ecc. | RA asc node [hr] |
Arg Peri. [°] |
Mean anom [°] |
Mean motion [rev/day] |
Abs. mag |
| 2026 May 09 17:57 | 2026 May 04 17:01:11 | 98.4853 | 0.00857 | 7.8293 | 257.9924 | 101.1643 | 14.30474 | – |
| 2026 May 08 17:57 | 2026 May 04 17:01:11 | 98.4853 | 0.00857 | 7.8293 | 257.9924 | 101.1643 | 14.30474 | – |
| 2026 May 07 17:58 | 2026 May 04 17:01:11 | 98.4853 | 0.00857 | 7.8293 | 257.9924 | 101.1643 | 14.30474 | – |
| 2026 May 06 17:57 | 2026 May 04 17:01:11 | 98.4853 | 0.00857 | 7.8293 | 257.9924 | 101.1643 | 14.30474 | – |
| 2026 May 05 17:57 | 2026 May 04 17:01:11 | 98.4853 | 0.00857 | 7.8293 | 257.9924 | 101.1643 | 14.30474 | – |
| 2026 May 04 17:57 | 2026 Apr 27 17:08:48 | 98.4855 | 0.00857 | 7.3742 | 278.9506 | 101.1643 | 14.30474 | – |
| 2026 May 03 17:57 | 2026 Apr 27 17:08:48 | 98.4855 | 0.00857 | 7.3742 | 278.9506 | 101.1643 | 14.30474 | – |
| 2026 May 02 17:57 | 2026 Apr 27 17:08:48 | 98.4855 | 0.00857 | 7.3742 | 278.9506 | 101.1643 | 14.30474 | – |
| 2026 May 01 17:56 | 2026 Apr 27 17:08:48 | 98.4855 | 0.00857 | 7.3742 | 278.9506 | 101.1643 | 14.30474 | – |
| 2026 Apr 30 17:56 | 2026 Apr 27 17:08:48 | 98.4855 | 0.00857 | 7.3742 | 278.9506 | 101.1643 | 14.30474 | – |
| 2026 Apr 29 17:57 | 2026 Apr 20 17:16:21 | 98.4852 | 0.00859 | 6.9191 | 299.9043 | 101.1643 | 14.30474 | – |
| 2026 Apr 28 17:56 | 2026 Apr 20 17:16:21 | 98.4852 | 0.00859 | 6.9191 | 299.9043 | 101.1643 | 14.30474 | – |
| 2026 Apr 27 17:58 | 2026 Apr 20 17:16:21 | 98.4852 | 0.00859 | 6.9191 | 299.9043 | 101.1643 | 14.30474 | – |
| 2026 Apr 26 17:58 | 2026 Apr 20 17:16:21 | 98.4852 | 0.00859 | 6.9191 | 299.9043 | 101.1643 | 14.30474 | – |
| 2026 Apr 25 17:58 | 2026 Apr 20 17:16:21 | 98.4852 | 0.00859 | 6.9191 | 299.9043 | 101.1643 | 14.30474 | – |
| 2026 Apr 24 17:59 | 2026 Apr 20 17:16:21 | 98.4852 | 0.00859 | 6.9191 | 299.9043 | 101.1643 | 14.30474 | – |
| 2026 Apr 23 17:57 | 2026 Apr 19 06:01:08 | 98.4855 | 0.00860 | 6.8236 | 304.2939 | 101.1643 | 14.30474 | – |
| 2026 Apr 22 17:57 | 2026 Apr 19 06:01:08 | 98.4855 | 0.00860 | 6.8236 | 304.2939 | 101.1643 | 14.30474 | – |
| 2026 Apr 21 17:57 | 2026 Apr 19 06:01:08 | 98.4855 | 0.00860 | 6.8236 | 304.2939 | 101.1643 | 14.30474 | – |
| 2026 Apr 20 17:57 | 2026 Apr 19 06:01:08 | 98.4855 | 0.00860 | 6.8236 | 304.2939 | 101.1643 | 14.30474 | – |
| 2026 Apr 19 17:58 | 2026 Apr 19 06:01:08 | 98.4855 | 0.00860 | 6.8236 | 304.2939 | 101.1643 | 14.30474 | – |
| 2026 Apr 18 17:56 | 2026 Apr 10 17:12:43 | 98.4847 | 0.00865 | 6.2684 | 329.7051 | 101.1643 | 14.30474 | – |
| 2026 Apr 16 17:57 | 2026 Apr 10 17:12:43 | 98.4847 | 0.00865 | 6.2684 | 329.7051 | 101.1643 | 14.30474 | – |
| 2026 Apr 14 17:57 | 2026 Apr 10 17:12:43 | 98.4847 | 0.00865 | 6.2684 | 329.7051 | 101.1643 | 14.30474 | – |
| 2026 Apr 13 17:57 | 2026 Apr 10 17:12:43 | 98.4847 | 0.00865 | 6.2684 | 329.7051 | 101.1643 | 14.30474 | – |
| 2026 Apr 12 17:57 | 2026 Apr 03 17:20:11 | 98.4843 | 0.00871 | 5.8133 | 350.4300 | 101.1643 | 14.30474 | – |